sensor_id;sensor_type;location;lat;lon;timestamp;P1;durP1;ratioP1;P2;durP2;ratioP2
12228;SDS011;6177;52.402;9.800;2022-07-29T00:01:18;2.78;;;0.90;;
12228;SDS011;6177;52.402;9.800;2022-07-29T00:04:03;2.47;;;0.82;;
12228;SDS011;6177;52.402;9.800;2022-07-29T00:06:47;0.90;;;0.90;;
12228;SDS011;6177;52.402;9.800;2022-07-29T00:09:32;3.60;;;1.08;;
12228;SDS011;6177;52.402;9.800;2022-07-29T00:12:16;1.30;;;0.80;;
12228;SDS011;6177;52.402;9.800;2022-07-29T00:15:01;3.65;;;0.90;;
12228;SDS011;6177;52.402;9.800;2022-07-29T00:17:47;4.25;;;0.90;;
12228;SDS011;6177;52.402;9.800;2022-07-29T00:20:31;1.83;;;0.90;;
12228;SDS011;6177;52.402;9.800;2022-07-29T00:23:16;1.50;;;0.93;;
12228;SDS011;6177;52.402;9.800;2022-07-29T00:26:00;2.92;;;1.00;;
12228;SDS011;6177;52.402;9.800;2022-07-29T00:28:45;1.00;;;0.82;;
12228;SDS011;6177;52.402;9.800;2022-07-29T00:31:29;0.82;;;0.68;;
12228;SDS011;6177;52.402;9.800;2022-07-29T00:34:14;3.05;;;2.65;;
12228;SDS011;6177;52.402;9.800;2022-07-29T00:37:17;1.23;;;0.88;;
12228;SDS011;6177;52.402;9.800;2022-07-29T00:40:02;2.35;;;0.77;;
12228;SDS011;6177;52.402;9.800;2022-07-29T00:42:48;1.65;;;1.08;;
12228;SDS011;6177;52.402;9.800;2022-07-29T00:45:33;4.50;;;0.90;;
12228;SDS011;6177;52.402;9.800;2022-07-29T00:48:18;1.60;;;0.90;;
12228;SDS011;6177;52.402;9.800;2022-07-29T00:51:03;1.42;;;0.80;;
12228;SDS011;6177;52.402;9.800;2022-07-29T00:53:49;2.05;;;0.80;;
12228;SDS011;6177;52.402;9.800;2022-07-29T00:56:34;1.00;;;1.00;;
12228;SDS011;6177;52.402;9.800;2022-07-29T00:59:19;2.33;;;1.10;;
12228;SDS011;6177;52.402;9.800;2022-07-29T01:02:04;1.42;;;0.70;;
12228;SDS011;6177;52.402;9.800;2022-07-29T01:04:49;2.47;;;0.90;;
12228;SDS011;6177;52.402;9.800;2022-07-29T01:07:34;2.33;;;0.85;;
12228;SDS011;6177;52.402;9.800;2022-07-29T01:10:20;1.40;;;0.88;;
12228;SDS011;6177;52.402;9.800;2022-07-29T01:13:06;4.25;;;0.80;;
12228;SDS011;6177;52.402;9.800;2022-07-29T01:15:56;1.58;;;0.80;;
12228;SDS011;6177;52.402;9.800;2022-07-29T01:18:53;2.90;;;1.10;;
12228;SDS011;6177;52.402;9.800;2022-07-29T01:21:51;3.45;;;0.95;;
12228;SDS011;6177;52.402;9.800;2022-07-29T01:30:57;2.55;;;0.75;;
12228;SDS011;6177;52.402;9.800;2022-07-29T01:33:45;1.30;;;0.95;;
12228;SDS011;6177;52.402;9.800;2022-07-29T01:36:36;0.80;;;0.80;;
12228;SDS011;6177;52.402;9.800;2022-07-29T01:39:30;3.58;;;0.98;;
12228;SDS011;6177;52.402;9.800;2022-07-29T01:45:15;2.23;;;1.10;;
12228;SDS011;6177;52.402;9.800;2022-07-29T01:48:11;2.15;;;1.05;;
12228;SDS011;6177;52.402;9.800;2022-07-29T01:51:38;3.58;;;0.95;;
12228;SDS011;6177;52.402;9.800;2022-07-29T01:54:22;1.23;;;1.00;;
12228;SDS011;6177;52.402;9.800;2022-07-29T01:57:13;3.80;;;1.15;;
12228;SDS011;6177;52.402;9.800;2022-07-29T01:59:58;2.72;;;0.93;;
12228;SDS011;6177;52.402;9.800;2022-07-29T02:02:55;3.10;;;1.05;;
12228;SDS011;6177;52.402;9.800;2022-07-29T02:05:41;1.33;;;0.80;;
12228;SDS011;6177;52.402;9.800;2022-07-29T02:08:28;1.38;;;1.10;;
12228;SDS011;6177;52.402;9.800;2022-07-29T02:11:16;2.20;;;0.77;;
12228;SDS011;6177;52.402;9.800;2022-07-29T02:14:00;0.85;;;0.85;;
12228;SDS011;6177;52.402;9.800;2022-07-29T02:16:48;1.43;;;0.77;;
12228;SDS011;6177;52.402;9.800;2022-07-29T02:19:37;1.97;;;0.80;;
12228;SDS011;6177;52.402;9.800;2022-07-29T02:22:23;2.20;;;1.10;;
12228;SDS011;6177;52.402;9.800;2022-07-29T02:25:09;2.50;;;1.27;;
12228;SDS011;6177;52.402;9.800;2022-07-29T02:27:54;4.10;;;0.97;;
12228;SDS011;6177;52.402;9.800;2022-07-29T02:30:40;1.27;;;1.00;;
12228;SDS011;6177;52.402;9.800;2022-07-29T02:33:27;2.17;;;1.00;;
12228;SDS011;6177;52.402;9.800;2022-07-29T02:36:13;1.70;;;0.95;;
12228;SDS011;6177;52.402;9.800;2022-07-29T02:39:00;0.97;;;0.97;;
12228;SDS011;6177;52.402;9.800;2022-07-29T02:41:52;3.37;;;0.90;;
12228;SDS011;6177;52.402;9.800;2022-07-29T02:44:41;0.90;;;0.90;;
12228;SDS011;6177;52.402;9.800;2022-07-29T02:47:46;1.93;;;1.03;;
12228;SDS011;6177;52.402;9.800;2022-07-29T02:50:34;1.60;;;1.17;;
12228;SDS011;6177;52.402;9.800;2022-07-29T02:53:22;0.90;;;0.90;;
12228;SDS011;6177;52.402;9.800;2022-07-29T02:56:10;0.77;;;0.77;;
12228;SDS011;6177;52.402;9.800;2022-07-29T02:58:58;3.93;;;1.20;;
12228;SDS011;6177;52.402;9.800;2022-07-29T03:01:47;1.17;;;0.80;;
12228;SDS011;6177;52.402;9.800;2022-07-29T03:04:33;3.83;;;1.10;;
12228;SDS011;6177;52.402;9.800;2022-07-29T03:07:19;1.60;;;1.20;;
12228;SDS011;6177;52.402;9.800;2022-07-29T03:10:05;2.80;;;1.30;;
12228;SDS011;6177;52.402;9.800;2022-07-29T03:12:52;1.43;;;1.30;;
12228;SDS011;6177;52.402;9.800;2022-07-29T03:15:37;1.30;;;1.20;;
12228;SDS011;6177;52.402;9.800;2022-07-29T03:18:23;3.53;;;1.40;;
12228;SDS011;6177;52.402;9.800;2022-07-29T03:21:09;2.60;;;1.20;;
12228;SDS011;6177;52.402;9.800;2022-07-29T03:23:54;2.80;;;0.97;;
12228;SDS011;6177;52.402;9.800;2022-07-29T03:26:38;2.87;;;1.03;;
12228;SDS011;6177;52.402;9.800;2022-07-29T03:29:23;1.87;;;1.30;;
12228;SDS011;6177;52.402;9.800;2022-07-29T03:32:08;1.90;;;1.23;;
12228;SDS011;6177;52.402;9.800;2022-07-29T03:34:53;2.63;;;0.97;;
12228;SDS011;6177;52.402;9.800;2022-07-29T03:37:38;1.23;;;1.00;;
12228;SDS011;6177;52.402;9.800;2022-07-29T03:40:26;2.33;;;1.13;;
12228;SDS011;6177;52.402;9.800;2022-07-29T03:43:16;2.33;;;1.20;;
12228;SDS011;6177;52.402;9.800;2022-07-29T03:46:02;1.10;;;1.10;;
12228;SDS011;6177;52.402;9.800;2022-07-29T03:48:52;3.10;;;1.40;;
12228;SDS011;6177;52.402;9.800;2022-07-29T03:51:41;2.40;;;1.17;;
12228;SDS011;6177;52.402;9.800;2022-07-29T03:54:26;2.53;;;1.20;;
12228;SDS011;6177;52.402;9.800;2022-07-29T03:57:11;1.30;;;1.20;;
12228;SDS011;6177;52.402;9.800;2022-07-29T03:59:57;1.20;;;1.10;;
12228;SDS011;6177;52.402;9.800;2022-07-29T04:02:43;3.97;;;1.50;;
12228;SDS011;6177;52.402;9.800;2022-07-29T04:05:31;0.97;;;0.97;;
12228;SDS011;6177;52.402;9.800;2022-07-29T04:08:16;1.10;;;1.00;;
12228;SDS011;6177;52.402;9.800;2022-07-29T04:11:01;1.53;;;1.20;;
12228;SDS011;6177;52.402;9.800;2022-07-29T04:13:46;1.60;;;1.10;;
12228;SDS011;6177;52.402;9.800;2022-07-29T04:16:31;3.20;;;1.00;;
12228;SDS011;6177;52.402;9.800;2022-07-29T04:19:15;2.77;;;1.17;;
12228;SDS011;6177;52.402;9.800;2022-07-29T04:22:00;1.70;;;1.30;;
12228;SDS011;6177;52.402;9.800;2022-07-29T04:24:44;1.77;;;1.20;;
12228;SDS011;6177;52.402;9.800;2022-07-29T04:27:29;1.27;;;1.20;;
12228;SDS011;6177;52.402;9.800;2022-07-29T04:30:14;1.23;;;1.20;;
12228;SDS011;6177;52.402;9.800;2022-07-29T04:32:59;1.63;;;1.40;;
12228;SDS011;6177;52.402;9.800;2022-07-29T04:35:44;1.30;;;1.20;;
12228;SDS011;6177;52.402;9.800;2022-07-29T04:38:29;2.00;;;1.50;;
12228;SDS011;6177;52.402;9.800;2022-07-29T04:41:13;2.40;;;1.27;;
12228;SDS011;6177;52.402;9.800;2022-07-29T04:43:58;1.30;;;1.20;;
12228;SDS011;6177;52.402;9.800;2022-07-29T04:46:44;1.80;;;1.37;;
12228;SDS011;6177;52.402;9.800;2022-07-29T04:49:29;3.90;;;1.60;;
12228;SDS011;6177;52.402;9.800;2022-07-29T04:52:13;1.67;;;1.17;;
12228;SDS011;6177;52.402;9.800;2022-07-29T04:54:58;1.20;;;1.10;;
12228;SDS011;6177;52.402;9.800;2022-07-29T04:57:43;1.53;;;1.43;;
12228;SDS011;6177;52.402;9.800;2022-07-29T05:00:28;4.80;;;1.90;;
12228;SDS011;6177;52.402;9.800;2022-07-29T05:03:12;2.43;;;1.53;;
12228;SDS011;6177;52.402;9.800;2022-07-29T05:05:57;2.30;;;1.57;;
12228;SDS011;6177;52.402;9.800;2022-07-29T05:08:41;2.13;;;1.50;;
12228;SDS011;6177;52.402;9.800;2022-07-29T05:11:26;6.87;;;2.00;;
12228;SDS011;6177;52.402;9.800;2022-07-29T05:14:11;3.93;;;1.90;;
12228;SDS011;6177;52.402;9.800;2022-07-29T05:16:55;3.37;;;1.60;;
12228;SDS011;6177;52.402;9.800;2022-07-29T05:19:40;3.57;;;1.60;;
12228;SDS011;6177;52.402;9.800;2022-07-29T05:22:25;4.77;;;1.97;;
12228;SDS011;6177;52.402;9.800;2022-07-29T05:25:10;2.03;;;1.83;;
12228;SDS011;6177;52.402;9.800;2022-07-29T05:27:54;3.73;;;1.70;;
12228;SDS011;6177;52.402;9.800;2022-07-29T05:30:39;2.40;;;1.77;;
12228;SDS011;6177;52.402;9.800;2022-07-29T05:33:23;2.00;;;1.83;;
12228;SDS011;6177;52.402;9.800;2022-07-29T05:36:08;3.03;;;1.90;;
12228;SDS011;6177;52.402;9.800;2022-07-29T05:38:53;3.23;;;1.70;;
12228;SDS011;6177;52.402;9.800;2022-07-29T05:41:37;1.83;;;1.73;;
12228;SDS011;6177;52.402;9.800;2022-07-29T05:44:22;1.67;;;1.50;;
12228;SDS011;6177;52.402;9.800;2022-07-29T05:47:07;2.80;;;1.90;;
12228;SDS011;6177;52.402;9.800;2022-07-29T05:49:52;2.00;;;1.77;;
12228;SDS011;6177;52.402;9.800;2022-07-29T05:52:38;2.23;;;1.23;;
12228;SDS011;6177;52.402;9.800;2022-07-29T05:55:22;1.63;;;1.53;;
12228;SDS011;6177;52.402;9.800;2022-07-29T05:58:07;3.73;;;1.70;;
12228;SDS011;6177;52.402;9.800;2022-07-29T06:00:52;2.03;;;1.33;;
12228;SDS011;6177;52.402;9.800;2022-07-29T06:03:36;2.22;;;1.55;;
12228;SDS011;6177;52.402;9.800;2022-07-29T06:06:21;3.33;;;2.05;;
12228;SDS011;6177;52.402;9.800;2022-07-29T06:09:06;3.10;;;1.90;;
12228;SDS011;6177;52.402;9.800;2022-07-29T06:11:51;4.53;;;1.55;;
12228;SDS011;6177;52.402;9.800;2022-07-29T06:14:36;2.00;;;1.90;;
12228;SDS011;6177;52.402;9.800;2022-07-29T06:17:22;2.78;;;1.65;;
12228;SDS011;6177;52.402;9.800;2022-07-29T06:20:06;5.20;;;2.08;;
12228;SDS011;6177;52.402;9.800;2022-07-29T06:22:52;4.00;;;1.90;;
12228;SDS011;6177;52.402;9.800;2022-07-29T06:25:36;2.88;;;1.63;;
12228;SDS011;6177;52.402;9.800;2022-07-29T06:28:21;2.47;;;1.98;;
12228;SDS011;6177;52.402;9.800;2022-07-29T06:31:06;2.92;;;1.80;;
12228;SDS011;6177;52.402;9.800;2022-07-29T06:33:51;3.50;;;1.95;;
12228;SDS011;6177;52.402;9.800;2022-07-29T06:36:36;7.50;;;2.03;;
12228;SDS011;6177;52.402;9.800;2022-07-29T06:39:22;6.35;;;2.10;;
12228;SDS011;6177;52.402;9.800;2022-07-29T06:42:07;2.95;;;1.77;;
12228;SDS011;6177;52.402;9.800;2022-07-29T06:44:51;3.03;;;1.88;;
12228;SDS011;6177;52.402;9.800;2022-07-29T06:47:36;3.97;;;1.98;;
12228;SDS011;6177;52.402;9.800;2022-07-29T06:50:21;1.95;;;1.85;;
12228;SDS011;6177;52.402;9.800;2022-07-29T06:53:05;1.92;;;1.83;;
12228;SDS011;6177;52.402;9.800;2022-07-29T06:55:50;2.28;;;2.08;;
12228;SDS011;6177;52.402;9.800;2022-07-29T06:58:35;2.75;;;1.83;;
12228;SDS011;6177;52.402;9.800;2022-07-29T07:01:20;3.78;;;2.00;;
12228;SDS011;6177;52.402;9.800;2022-07-29T07:04:05;4.03;;;1.80;;
12228;SDS011;6177;52.402;9.800;2022-07-29T07:06:50;3.50;;;2.15;;
12228;SDS011;6177;52.402;9.800;2022-07-29T07:09:34;2.10;;;1.48;;
12228;SDS011;6177;52.402;9.800;2022-07-29T07:12:19;2.03;;;1.80;;
12228;SDS011;6177;52.402;9.800;2022-07-29T07:15:04;2.70;;;2.00;;
12228;SDS011;6177;52.402;9.800;2022-07-29T07:17:49;3.42;;;1.90;;
12228;SDS011;6177;52.402;9.800;2022-07-29T07:20:35;1.75;;;1.60;;
12228;SDS011;6177;52.402;9.800;2022-07-29T07:23:19;3.25;;;2.10;;
12228;SDS011;6177;52.402;9.800;2022-07-29T07:26:04;2.08;;;1.70;;
12228;SDS011;6177;52.402;9.800;2022-07-29T07:28:49;2.13;;;1.50;;
12228;SDS011;6177;52.402;9.800;2022-07-29T07:31:35;1.75;;;1.65;;
12228;SDS011;6177;52.402;9.800;2022-07-29T07:34:20;2.08;;;1.67;;
12228;SDS011;6177;52.402;9.800;2022-07-29T07:37:05;4.45;;;1.80;;
12228;SDS011;6177;52.402;9.800;2022-07-29T07:39:49;2.35;;;1.67;;
12228;SDS011;6177;52.402;9.800;2022-07-29T07:42:35;1.90;;;1.80;;
12228;SDS011;6177;52.402;9.800;2022-07-29T07:45:19;4.30;;;2.03;;
12228;SDS011;6177;52.402;9.800;2022-07-29T07:48:04;3.33;;;1.75;;
12228;SDS011;6177;52.402;9.800;2022-07-29T07:50:49;2.33;;;1.92;;
12228;SDS011;6177;52.402;9.800;2022-07-29T07:53:35;3.38;;;1.52;;
12228;SDS011;6177;52.402;9.800;2022-07-29T07:56:20;2.10;;;1.90;;
12228;SDS011;6177;52.402;9.800;2022-07-29T07:59:04;1.83;;;1.70;;
12228;SDS011;6177;52.402;9.800;2022-07-29T08:01:49;2.65;;;1.67;;
12228;SDS011;6177;52.402;9.800;2022-07-29T08:04:34;5.22;;;3.28;;
12228;SDS011;6177;52.402;9.800;2022-07-29T08:07:19;2.55;;;1.90;;
12228;SDS011;6177;52.402;9.800;2022-07-29T08:10:04;2.25;;;1.50;;
12228;SDS011;6177;52.402;9.800;2022-07-29T08:12:49;2.90;;;1.83;;
12228;SDS011;6177;52.402;9.800;2022-07-29T08:15:34;2.25;;;1.92;;
12228;SDS011;6177;52.402;9.800;2022-07-29T08:18:19;4.18;;;2.50;;
12228;SDS011;6177;52.402;9.800;2022-07-29T08:21:04;2.00;;;1.88;;
12228;SDS011;6177;52.402;9.800;2022-07-29T08:23:49;4.03;;;2.20;;
12228;SDS011;6177;52.402;9.800;2022-07-29T08:26:36;3.22;;;2.42;;
12228;SDS011;6177;52.402;9.800;2022-07-29T08:29:21;3.53;;;2.00;;
12228;SDS011;6177;52.402;9.800;2022-07-29T08:32:05;7.80;;;2.60;;
12228;SDS011;6177;52.402;9.800;2022-07-29T08:34:50;4.13;;;2.10;;
12228;SDS011;6177;52.402;9.800;2022-07-29T08:37:35;2.38;;;2.05;;
12228;SDS011;6177;52.402;9.800;2022-07-29T08:40:19;2.72;;;2.22;;
12228;SDS011;6177;52.402;9.800;2022-07-29T08:43:05;4.32;;;2.28;;
12228;SDS011;6177;52.402;9.800;2022-07-29T08:45:51;9.13;;;2.28;;
12228;SDS011;6177;52.402;9.800;2022-07-29T08:48:36;5.25;;;2.50;;
12228;SDS011;6177;52.402;9.800;2022-07-29T08:51:20;3.63;;;2.33;;
12228;SDS011;6177;52.402;9.800;2022-07-29T08:54:05;4.47;;;2.30;;
12228;SDS011;6177;52.402;9.800;2022-07-29T08:56:52;3.75;;;2.15;;
12228;SDS011;6177;52.402;9.800;2022-07-29T08:59:37;7.60;;;2.15;;
12228;SDS011;6177;52.402;9.800;2022-07-29T09:02:27;4.47;;;2.13;;
12228;SDS011;6177;52.402;9.800;2022-07-29T09:05:14;4.35;;;2.45;;
12228;SDS011;6177;52.402;9.800;2022-07-29T09:07:59;6.85;;;2.60;;
12228;SDS011;6177;52.402;9.800;2022-07-29T09:10:44;3.80;;;2.70;;
12228;SDS011;6177;52.402;9.800;2022-07-29T09:13:29;2.15;;;1.83;;
12228;SDS011;6177;52.402;9.800;2022-07-29T09:16:14;4.07;;;2.15;;
12228;SDS011;6177;52.402;9.800;2022-07-29T09:18:58;4.10;;;2.05;;
12228;SDS011;6177;52.402;9.800;2022-07-29T09:21:43;5.28;;;2.03;;
12228;SDS011;6177;52.402;9.800;2022-07-29T09:24:44;2.97;;;2.55;;
12228;SDS011;6177;52.402;9.800;2022-07-29T09:27:30;2.33;;;2.17;;
12228;SDS011;6177;52.402;9.800;2022-07-29T09:30:14;3.67;;;2.55;;
12228;SDS011;6177;52.402;9.800;2022-07-29T09:33:02;4.03;;;2.13;;
12228;SDS011;6177;52.402;9.800;2022-07-29T09:35:58;5.97;;;2.38;;
12228;SDS011;6177;52.402;9.800;2022-07-29T09:38:56;3.97;;;2.10;;
12228;SDS011;6177;52.402;9.800;2022-07-29T09:41:46;2.75;;;2.28;;
12228;SDS011;6177;52.402;9.800;2022-07-29T09:47:45;6.38;;;2.30;;
12228;SDS011;6177;52.402;9.800;2022-07-29T09:50:37;3.63;;;2.30;;
12228;SDS011;6177;52.402;9.800;2022-07-29T09:56:18;4.80;;;2.30;;
12228;SDS011;6177;52.402;9.800;2022-07-29T09:59:05;5.35;;;1.88;;
12228;SDS011;6177;52.402;9.800;2022-07-29T10:01:51;3.88;;;1.92;;
12228;SDS011;6177;52.402;9.800;2022-07-29T10:04:40;3.53;;;2.00;;
12228;SDS011;6177;52.402;9.800;2022-07-29T10:07:26;3.38;;;2.03;;
12228;SDS011;6177;52.402;9.800;2022-07-29T10:13:14;6.10;;;2.33;;
12228;SDS011;6177;52.402;9.800;2022-07-29T10:15:59;4.35;;;1.90;;
12228;SDS011;6177;52.402;9.800;2022-07-29T10:18:44;3.80;;;1.88;;
12228;SDS011;6177;52.402;9.800;2022-07-29T10:21:30;6.25;;;2.10;;
12228;SDS011;6177;52.402;9.800;2022-07-29T10:24:16;6.47;;;2.60;;
12228;SDS011;6177;52.402;9.800;2022-07-29T10:27:01;3.38;;;1.80;;
12228;SDS011;6177;52.402;9.800;2022-07-29T10:29:47;2.88;;;2.00;;
12228;SDS011;6177;52.402;9.800;2022-07-29T10:38:55;3.80;;;2.15;;
12228;SDS011;6177;52.402;9.800;2022-07-29T10:44:47;3.85;;;1.90;;
12228;SDS011;6177;52.402;9.800;2022-07-29T10:47:32;3.65;;;2.00;;
12228;SDS011;6177;52.402;9.800;2022-07-29T10:50:17;4.65;;;2.00;;
12228;SDS011;6177;52.402;9.800;2022-07-29T10:53:02;3.20;;;2.10;;
12228;SDS011;6177;52.402;9.800;2022-07-29T10:55:47;2.10;;;1.83;;
12228;SDS011;6177;52.402;9.800;2022-07-29T10:58:33;2.90;;;1.90;;
12228;SDS011;6177;52.402;9.800;2022-07-29T11:01:28;6.10;;;1.90;;
12228;SDS011;6177;52.402;9.800;2022-07-29T11:04:14;3.00;;;2.15;;
12228;SDS011;6177;52.402;9.800;2022-07-29T11:10:09;4.03;;;2.10;;
12228;SDS011;6177;52.402;9.800;2022-07-29T11:12:56;3.28;;;1.85;;
12228;SDS011;6177;52.402;9.800;2022-07-29T11:15:52;2.55;;;2.00;;
12228;SDS011;6177;52.402;9.800;2022-07-29T11:21:57;2.15;;;1.90;;
12228;SDS011;6177;52.402;9.800;2022-07-29T11:24:42;3.50;;;1.90;;
12228;SDS011;6177;52.402;9.800;2022-07-29T11:27:30;5.38;;;1.95;;
12228;SDS011;6177;52.402;9.800;2022-07-29T11:30:41;4.72;;;2.22;;
12228;SDS011;6177;52.402;9.800;2022-07-29T11:33:37;3.75;;;1.92;;
12228;SDS011;6177;52.402;9.800;2022-07-29T11:36:23;2.08;;;1.55;;
12228;SDS011;6177;52.402;9.800;2022-07-29T11:39:26;2.38;;;2.17;;
12228;SDS011;6177;52.402;9.800;2022-07-29T11:45:19;3.88;;;2.63;;
12228;SDS011;6177;52.402;9.800;2022-07-29T11:48:05;6.93;;;2.20;;
12228;SDS011;6177;52.402;9.800;2022-07-29T11:50:51;5.93;;;2.42;;
12228;SDS011;6177;52.402;9.800;2022-07-29T11:53:36;6.60;;;2.15;;
12228;SDS011;6177;52.402;9.800;2022-07-29T11:56:21;2.17;;;2.00;;
12228;SDS011;6177;52.402;9.800;2022-07-29T11:59:07;4.22;;;1.65;;
12228;SDS011;6177;52.402;9.800;2022-07-29T12:01:56;3.03;;;1.90;;
12228;SDS011;6177;52.402;9.800;2022-07-29T12:04:47;5.75;;;2.03;;
12228;SDS011;6177;52.402;9.800;2022-07-29T12:07:33;5.50;;;2.45;;
12228;SDS011;6177;52.402;9.800;2022-07-29T12:10:18;2.28;;;1.55;;
12228;SDS011;6177;52.402;9.800;2022-07-29T12:13:03;4.32;;;1.80;;
12228;SDS011;6177;52.402;9.800;2022-07-29T12:15:56;3.58;;;2.08;;
12228;SDS011;6177;52.402;9.800;2022-07-29T12:18:41;4.15;;;1.98;;
12228;SDS011;6177;52.402;9.800;2022-07-29T12:21:26;2.00;;;1.75;;
12228;SDS011;6177;52.402;9.800;2022-07-29T12:24:11;3.70;;;1.90;;
12228;SDS011;6177;52.402;9.800;2022-07-29T12:26:56;4.50;;;2.17;;
12228;SDS011;6177;52.402;9.800;2022-07-29T12:29:41;3.38;;;1.92;;
12228;SDS011;6177;52.402;9.800;2022-07-29T12:35:18;5.18;;;2.10;;
12228;SDS011;6177;52.402;9.800;2022-07-29T12:38:03;1.67;;;1.58;;
12228;SDS011;6177;52.402;9.800;2022-07-29T12:40:48;1.80;;;1.73;;
12228;SDS011;6177;52.402;9.800;2022-07-29T12:43:35;3.95;;;2.10;;
12228;SDS011;6177;52.402;9.800;2022-07-29T12:46:19;7.03;;;2.00;;
12228;SDS011;6177;52.402;9.800;2022-07-29T12:49:04;2.70;;;1.55;;
12228;SDS011;6177;52.402;9.800;2022-07-29T12:51:49;3.97;;;1.70;;
12228;SDS011;6177;52.402;9.800;2022-07-29T12:54:33;2.83;;;1.70;;
12228;SDS011;6177;52.402;9.800;2022-07-29T12:57:18;6.72;;;1.75;;
12228;SDS011;6177;52.402;9.800;2022-07-29T13:00:05;3.50;;;1.70;;
12228;SDS011;6177;52.402;9.800;2022-07-29T13:02:56;1.83;;;1.73;;
12228;SDS011;6177;52.402;9.800;2022-07-29T13:05:43;2.90;;;1.92;;
12228;SDS011;6177;52.402;9.800;2022-07-29T13:08:28;2.88;;;2.10;;
12228;SDS011;6177;52.402;9.800;2022-07-29T13:11:27;2.80;;;1.70;;
12228;SDS011;6177;52.402;9.800;2022-07-29T13:14:31;2.63;;;2.03;;
12228;SDS011;6177;52.402;9.800;2022-07-29T13:17:23;5.15;;;1.80;;
12228;SDS011;6177;52.402;9.800;2022-07-29T13:20:08;4.93;;;1.80;;
12228;SDS011;6177;52.402;9.800;2022-07-29T13:22:57;5.53;;;1.98;;
12228;SDS011;6177;52.402;9.800;2022-07-29T13:25:42;4.13;;;2.15;;
12228;SDS011;6177;52.402;9.800;2022-07-29T13:28:27;4.25;;;2.33;;
12228;SDS011;6177;52.402;9.800;2022-07-29T13:31:11;3.10;;;2.00;;
12228;SDS011;6177;52.402;9.800;2022-07-29T13:33:56;4.47;;;2.33;;
12228;SDS011;6177;52.402;9.800;2022-07-29T13:36:40;2.65;;;2.45;;
12228;SDS011;6177;52.402;9.800;2022-07-29T13:39:25;5.43;;;2.55;;
12228;SDS011;6177;52.402;9.800;2022-07-29T13:42:10;5.60;;;2.38;;
12228;SDS011;6177;52.402;9.800;2022-07-29T13:44:56;2.78;;;2.33;;
12228;SDS011;6177;52.402;9.800;2022-07-29T13:47:41;3.45;;;2.50;;
12228;SDS011;6177;52.402;9.800;2022-07-29T13:50:26;4.30;;;2.40;;
12228;SDS011;6177;52.402;9.800;2022-07-29T13:53:11;3.65;;;2.28;;
12228;SDS011;6177;52.402;9.800;2022-07-29T13:55:55;2.60;;;2.17;;
12228;SDS011;6177;52.402;9.800;2022-07-29T13:58:40;2.88;;;2.53;;
12228;SDS011;6177;52.402;9.800;2022-07-29T14:01:24;2.53;;;2.33;;
12228;SDS011;6177;52.402;9.800;2022-07-29T14:04:10;2.90;;;1.77;;
12228;SDS011;6177;52.402;9.800;2022-07-29T14:06:54;2.50;;;1.98;;
12228;SDS011;6177;52.402;9.800;2022-07-29T14:09:39;5.28;;;2.25;;
12228;SDS011;6177;52.402;9.800;2022-07-29T14:12:23;2.60;;;2.40;;
12228;SDS011;6177;52.402;9.800;2022-07-29T14:15:08;4.05;;;2.13;;
